Flight Track Log - Related Links

Times and Time Zones

All times are in EDT time to prevent confusion due to time zone crossing. See the AWI3778 flight status page for this flight to view local times or setup timezone preferences in your user account.

Time Position Orientation Groundspeed Altitude Reporting Facility
EDT Latitude Longitude Course Direction KTS MPH feet Rate Location/Type
Thu 11:39:19 AM 39.8667 -75.2833 37° Northeast 170 196 500  Level Philadelphia TRACON
Thu 11:40:51 AM 39.7956 -75.3450 214° Southwest 238 274 3,300 2,160 Climbing New York Center
Thu 11:41:00 AM 39.8167 -74.8908 90° East  Level FlightAware Approximate
Thu 11:41:49 AM 39.7333 -75.3897 209° Southwest 260 299 5,900  Level New York Center
Thu 11:42:00 AM 39.7981 -74.7739 105° East  Level FlightAware Approximate
Thu 11:42:49 AM 39.6703 -75.3506 154° Southeast 246 283 8,100  Level New York Center
Thu 11:43:00 AM 39.8099 -74.6735 37° Northeast  Level FlightAware Approximate
Thu 11:43:50 AM 39.6767 -75.2403 86° East 190 219 10,400  Level New York Center
Thu 11:44:00 AM 39.8830 -74.6004 37° Northeast  Level FlightAware Approximate
Thu 11:44:51 AM 39.6992 -75.1392 74° East 277 319 11,300  Level New York Center
Thu 11:45:48 AM 39.7289 -75.0058 74° East 335 386 12,000 356 Climbing New York Center
Thu 11:46:49 AM 39.7539 -74.8886 74° East 363 418 12,000 694 Level New York Center
Thu 11:47:49 AM 39.8106 -74.7622 60° Northeast 369 425 13,400 1,587 Climbing New York Center
Thu 11:48:50 AM 39.8800 -74.6797 42° Northeast 368 423 15,200 1,672 Climbing New York Center
Thu 11:49:51 AM 39.9603 -74.5786 44° Northeast 368 423 16,800 1,388 Climbing New York Center
Thu 11:50:51 AM 40.0386 -74.4797 44° Northeast 376 433 18,000 1,271 Climbing New York Center
Thu 11:51:49 AM 40.1183 -74.4000 37° Northeast 376 433 19,300 1,160 Climbing New York Center
Thu 11:52:50 AM 40.2022 -74.3147 38° Northeast 370 426 20,300 984 Climbing New York Center
Thu 11:53:51 AM 40.2794 -74.2397 37° Northeast 377 434 21,300 1,068 Climbing New York Center
Thu 11:54:48 AM 40.3758 -74.1492 36° Northeast 383 441 22,400 1,008 Climbing New York Center
Thu 11:55:50 AM 40.4628 -74.0936 26° Northeast 383 441 23,300 787 Climbing New York Center
Thu 11:56:50 AM 40.5708 -74.0278 25° Northeast 378 435 24,000 397 Climbing New York Center
Thu 11:57:51 AM 40.6728 -73.9614 26° Northeast 384 442 24,100 288 Climbing New York Center
Thu 12:00:18 PM 40.9228 -73.8108 24° Northeast 409 471 25,000 261 Climbing Boston Center
Thu 12:01:18 PM 41.0236 -73.7469 26° Northeast 409 471 25,000  Level Boston Center
Thu 12:02:18 PM 41.1244 -73.6828 26° Northeast 404 465 25,000  Level Boston Center
Thu 12:03:18 PM 41.2250 -73.6186 26° Northeast 399 459 25,000  Level Boston Center
Thu 12:04:18 PM 41.3297 -73.5761 17° North 399 459 25,000  Level Boston Center
Thu 12:05:18 PM 41.4361 -73.5586 North 384 442 25,000  Level Boston Center
Thu 12:06:18 PM 41.5511 -73.5358 North 378 435 25,000  Level Boston Center
Thu 12:07:18 PM 41.6428 -73.5347 North 372 428 25,000  Level Boston Center
Thu 12:08:18 PM 41.7511 -73.5225 North 372 428 25,000  Level Boston Center
Thu 12:09:18 PM 41.8556 -73.5075 North 372 428 25,000  Level Boston Center
Thu 12:10:18 PM 41.9642 -73.4928 North 377 434 25,000  Level Boston Center
Thu 12:11:18 PM 42.0706 -73.4778 North 382 440 25,000  Level Boston Center
Thu 12:12:18 PM 42.1792 -73.4542 North 389 448 25,000  Level Boston Center
Thu 12:13:18 PM 42.2856 -73.4419 North 389 448 25,000  Level Boston Center
Thu 12:14:18 PM 42.3897 -73.4353 North 383 441 25,000  Level Boston Center
Thu 12:15:18 PM 42.4983 -73.4172 North 388 447 25,000  Level Boston Center
Thu 12:16:18 PM 42.6047 -73.4019 North 388 447 25,000 -400 Level Boston Center
Thu 12:17:18 PM 42.7153 -73.3894 North 388 447 24,200 -500 Descending Boston Center
Thu 12:18:18 PM 42.8175 -73.3714 North 383 441 24,000 -800 Descending Boston Center
Thu 12:19:18 PM 42.9239 -73.3558 North 373 429 22,600 -1,700 Descending Boston Center
Thu 12:20:18 PM 43.0283 -73.3433 North 373 429 20,600 -2,050 Descending Boston Center
Thu 12:21:18 PM 43.1283 -73.3278 North 358 412 18,500 -1,300 Descending Boston Center
Thu 12:22:18 PM 43.2244 -73.3147 North 336 387 18,000 -250 Descending Boston Center
Thu 12:23:18 PM 43.3183 -73.3019 North 331 381 18,000 -250 Level Boston Center
Thu 12:24:18 PM 43.3997 -73.2917 North 331 381 17,500 -900 Descending Boston Center
Thu 12:25:18 PM 43.4914 -73.2814 North 331 381 16,200 -1,350 Descending Boston Center
Thu 12:26:18 PM 43.5833 -73.2683 North 331 381 14,800 -1,550 Descending Boston Center
Thu 12:27:18 PM 43.6811 -73.2611 North 331 381 13,100 -1,550 Descending Boston Center
Thu 12:28:18 PM 43.7731 -73.2453 North 326 375 11,700 -1,050 Descending Boston Center
Thu 12:29:18 PM 43.8628 -73.2347 North 331 381 11,000 -350 Descending Boston Center
Thu 12:30:18 PM 43.9522 -73.2244 North 331 381 11,000 -550 Level Boston Center
Thu 12:31:18 PM 44.0358 -73.2228 North 310 357 9,900 -1,450 Descending Boston Center
Thu 12:32:18 PM 44.1044 -73.2236 360° North 282 325 8,100 -1,800 Descending Boston Center
Thu 12:33:18 PM 44.1753 -73.2419 349° North 262 302 6,300 -1,800 Descending Boston Center
Thu 12:34:18 PM 44.2436 -73.2806 338° Northwest 257 296 4,500 -1,150 Descending Boston Center
Thu 12:35:18 PM 44.3122 -73.3075 344° North 257 296 4,000 -500 Descending Boston Center

Login

Don't have an account? Register now (free) for customized features, flight alerts, and more!